• Join FlightAware (Why Join?)
  • Login
  • US Flag 
08:43AM EDT


 

Airport Tracker/Info


-or-


 

Live Flight TrackerFlight Track Log ✈ SKW4542 ✈ 03-May-2013 ✈ KIDA - KSLC

Flight Track Log - Related Links

Times and Time Zones

All times are in EDT time to prevent confusion due to time zone crossing. See the SKW4542 flight status page for this flight to view local times or setup timezone preferences in your user account.

Time Position Orientation Groundspeed Altitude Reporting Facility
EDT Latitude Longitude Course Direction KTS MPH feet Rate Location/Type
08:41PM 43.4492 -112.1322 214° Southwest 190 219 7,400  Level Salt Lake Center
08:42PM 43.4255 -112.0676 216° Southwest  Level Estimated
08:42PM 43.3872 -112.1847 212° Southwest 246 283 9,800  Level Salt Lake Center
08:43PM 43.3491 -112.0649 213° Southwest  Level Estimated
08:43PM 43.3078 -112.2586 214° Southwest 289 333 12,800  Level Salt Lake Center
08:44PM 43.3084 -112.1537 238° Southwest  Level FlightAware Approximate
08:44PM 43.2333 -112.3253 213° Southwest 314 361 15,800  Level Salt Lake Center
08:45PM 43.2676 -112.2424 238° Southwest  Level FlightAware Approximate
08:45PM 43.1458 -112.4056 214° Southwest 331 381 18,700  Level Salt Lake Center
08:46PM 43.0692 -112.4711 212° Southwest 338 389 20,800 1,860 Climbing Salt Lake Center
08:47PM 42.9914 -112.5422 214° Southwest 347 399 22,600 1,500 Climbing Salt Lake Center
08:48PM 42.8983 -112.6225 212° Southwest 353 406 24,000 660 Climbing Salt Lake Center
08:49PM 42.7981 -112.6389 187° South 395 455 24,000  Level Salt Lake Center
08:50PM 42.6928 -112.6011 165° South 397 457 24,000  Level Salt Lake Center
08:51PM 42.5875 -112.5686 167° South 391 450 24,000  Level Salt Lake Center
08:52PM 42.4617 -112.5303 167° South 389 448 24,000  Level Salt Lake Center
08:53PM 42.3558 -112.4978 167° South 391 450 24,000  Level Salt Lake Center
08:54PM 42.2492 -112.4675 168° South 392 451 24,000  Level Salt Lake Center
08:55PM 42.1411 -112.4517 174° South 390 449 24,000  Level Salt Lake Center
08:56PM 42.0319 -112.4606 183° South 393 452 24,000  Level Salt Lake Center
08:57PM 41.9233 -112.4672 183° South 393 452 24,000 -480 Level Salt Lake Center
08:58PM 41.8133 -112.4733 182° South 396 456 23,100 -1,920 Descending Salt Lake Center
08:59PM 41.6897 -112.4808 183° South 374 430 20,100 -2,760 Descending Salt Lake Center
09:00PM 41.6639 -112.4758 172° South 375 432 19,400 -2,340 Descending Salt Lake Center
09:00PM 41.5883 -112.4861 186° South 366 421 17,700 -1,680 Descending Salt Lake Center
09:01PM 41.5219 -112.4750 173° South 352 405 17,000 -900 Descending Salt Lake Center
09:01PM 41.4967 -112.4619 159° South 353 406 16,800 -1,200 Descending Salt Lake Center
09:02PM 41.4328 -112.4019 145° Southeast 351 404 15,700 -1,500 Descending Salt Lake Center
09:03PM 41.3486 -112.3447 153° Southeast 313 360 14,000 -1,680 Descending Salt Lake Center
09:04PM 41.2817 -112.2986 153° Southeast 312 359 12,500 -1,500 Descending Salt Lake Center
09:04PM 41.2633 -112.2897 160° South 309 356 12,200 -540 Descending Salt Lake Center
09:05PM 41.2022 -112.2431 150° Southeast 304 350 12,000 -240 Descending Salt Lake Center
09:05PM 41.1900 -112.2361 157° South 303 349 12,000  Level Salt Lake Center
09:06PM 41.1292 -112.1881 149° Southeast 306 352 12,000  Level Salt Lake Center
09:06PM 41.1017 -112.1681 151° Southeast 309 356 12,000  Level Salt Lake Center
09:07PM 41.0511 -112.1403 157° South 308 354 12,000  Level Salt Lake Center
09:07PM 41.0225 -112.1344 171° South 305 351 12,000  Level Salt Lake Center
09:08PM 40.9706 -112.1250 172° South 298 343 12,000  Level Salt Lake Center
09:08PM 40.9444 -112.1189 170° South 287 330 12,000  Level Salt Lake Center
09:09PM 40.9053 -112.1103 171° South 257 296 12,000  Level Salt Lake Center
09:10PM 40.8758 -112.1058 173° South 255 293 12,000  Level Salt Lake Center
09:10PM 40.8331 -112.1036 178° South 260 299 12,000  Level Salt Lake Center
09:11PM 40.8047 -112.0978 171° South 257 296 12,000 -660 Level Salt Lake Center
09:11PM 40.7469 -112.0931 176° South 242 278 11,200 -900 Descending Salt Lake Center
09:12PM 40.7381 -112.0906 168° South 242 278 11,100 -240 Descending Salt Lake Center
09:12PM 40.6944 -112.0881 178° South 212 244 11,000 -240 Descending Salt Lake Center
09:13PM 40.6792 -112.0831 166° South 215 247 10,900 -900 Descending Salt Lake Center
09:13PM 40.6328 -112.0808 178° South 212 244 10,100 -900 Descending Salt Lake Center
09:14PM 40.6097 -112.0756 170° South 209 241 10,000 -120 Descending Salt Lake Center
09:14PM 40.5800 -112.0758 180° South 210 242 10,000 -240 Level Salt Lake Center
09:15PM 40.5597 -112.0467 132° Southeast 215 247 9,800 -720 Descending Salt Lake Center
09:15PM 40.5606 -112.0092 88° East 215 247 9,300 -1,260 Descending Salt Lake Center
09:16PM 40.5822 -111.9817 44° Northeast 216 249 8,500 -1,080 Descending Salt Lake Center
09:16PM 40.6150 -111.9794 North 192 221 8,100 -900 Descending Salt Lake Center
09:17PM 40.6353 -111.9792 North 184 212 7,600 -1,140 Descending Salt Lake Center